Snowshoe, WV (26209)

12:11 AM EST on December 03, 2016 (GMT -0500)
Silver Creek | | Change Station

Elev 4462 ft 38.44 °N, 79.99 °W | Updated 0 second ago

Overcast
Overcast
21.9 °F
Feels Like 12 °F
N
8.1
Wind Variable Wind from West
Gusts 9.0 mph

Today
High -- | Low -- °F
--% Chance of Precip.
Yesterday
High -- | Low -- °F
Precip. -- in
Pressure 30.07 in
Visibility 10.0 miles
Clouds Overcast 1200 ft
Windchill 12 °F
Dew Point 21 °F
Humidity 95%
Rainfall 0.00 in
Snow Depth Not available.
7:20 AM 4:59 PM
Waxing Crescent, 12% visible
METAR KHSP 030455Z AUTO 30021G29KT 10SM OVC012 M02/M04 A3007 RMK AO2
Pressure 30.07 in
Visibility 10.0 miles
Clouds Overcast 1200 ft
Windchill 12 °F
Dew Point 21 °F
Humidity 95%
Rainfall 0.00 in
Snow Depth Not available.
7:20 AM 4:59 PM
Waxing Crescent, 12% visible
METAR KHSP 030455Z AUTO 30021G29KT 10SM OVC012 M02/M04 A3007 RMK AO2

10-Day Weather Forecast

Almanac

Astronomy

Dec. 03, 2016 Rise Set
Actual Time
Civil Twilight
Nautical Twilight
Astronomical Twilight
Moon
Length of Visible Light
Length of Day
Tomorrow will be .
, % of the Moon is Illuminated

Today's Extremes

State Highs State Lows

Community

WunderPhotos

Upload Photos

1,955,411 photos uploaded!

WunderBlog® & News

Nearby

Air Quality

  Air Quality AQ Index Pollutant
Not available.

Snow Depth

Station Depth Elevation

Earthquake Activity

City Distance Mag. Time & Date
Minimum magnitude displayed is 2.5.

Coastal Water Temperatures

Place Temperature

Stations

Nearby Weather Stations

Station Location Temp. Windchill Dew Point Humidity Wind Precip. Elev Updated Type
                   

Watches & Warnings

There are currently no watches in effect.